Time;durP1;ratioP1;P1;durP2;ratioP2;P2;SDS_P1;SDS_P2;PMS_P1;PMS_P2;Temp;Humidity;BMP_temperature;BMP_pressure;BME280_temperature;BME280_humidity;BME280_pressure;Samples;Min_cycle;Max_cycle;Signal;HPM_P1;HPM_P2
2021/12/13 00:01:12;;;;;;;10.37;5.20;;;;;;;2.43;100.00;97160.94;5008852;28;20132;-75
2021/12/13 00:03:44;;;;;;;9.17;5.37;;;;;;;2.45;100.00;97164.28;5038085;28;20032;-75
2021/12/13 00:06:26;;;;;;;12.87;6.37;;;;;;;2.44;100.00;97165.19;5023212;28;20417;-75
2021/12/13 00:08:56;;;;;;;11.53;6.33;;;;;;;2.44;100.00;97162.59;5032346;28;20041;-75
2021/12/13 00:11:27;;;;;;;12.83;6.23;;;;;;;2.42;100.00;97161.88;4997101;28;20061;-75
2021/12/13 00:13:59;;;;;;;9.40;6.03;;;;;;;2.43;100.00;97163.53;5033033;28;20040;-75
2021/12/13 00:16:32;;;;;;;9.88;5.60;;;;;;;2.46;100.00;97152.97;5033091;28;20032;-75
2021/12/13 00:19:08;;;;;;;12.35;6.53;;;;;;;2.41;100.00;97157.56;5037013;28;20021;-75
2021/12/13 00:21:44;;;;;;;11.70;5.90;;;;;;;2.41;100.00;97157.56;5043071;28;20716;-75
2021/12/13 00:24:21;;;;;;;10.40;6.27;;;;;;;2.43;100.00;97155.75;5032479;28;20036;-75
2021/12/13 00:26:49;;;;;;;13.80;6.10;;;;;;;2.42;100.00;97158.44;5017051;28;20065;-75
2021/12/13 00:29:19;;;;;;;10.33;5.87;;;;;;;2.48;100.00;97160.66;5043454;28;20017;-74
2021/12/13 00:31:55;;;;;;;10.53;5.90;;;;;;;2.48;100.00;97163.25;5024395;28;20037;-74
2021/12/13 00:34:38;;;;;;;10.60;5.87;;;;;;;2.45;100.00;97174.69;5021063;28;20561;-75
2021/12/13 00:37:30;;;;;;;10.93;6.47;;;;;;;2.48;100.00;97174.50;5031653;28;20171;-75
2021/12/13 00:40:19;;;;;;;14.77;6.70;;;;;;;2.48;100.00;97177.09;5029379;28;20467;-75
2021/12/13 00:43:03;;;;;;;10.63;6.33;;;;;;;2.50;100.00;97175.25;5037891;28;20624;-74
2021/12/13 00:45:31;;;;;;;11.37;6.70;;;;;;;2.47;100.00;97179.78;5028686;28;20037;-75
2021/12/13 00:48:01;;;;;;;13.07;6.97;;;;;;;2.44;100.00;97177.34;5038081;28;20055;-75
2021/12/13 00:50:41;;;;;;;10.37;6.47;;;;;;;2.57;100.00;97176.56;5028521;28;20521;-75
2021/12/13 00:53:08;;;;;;;11.57;6.87;;;;;;;2.45;100.00;97185.06;5019166;28;20025;-75
2021/12/13 00:55:36;;;;;;;11.67;7.27;;;;;;;2.46;100.00;97178.94;5043271;28;20021;-75
2021/12/13 00:58:11;;;;;;;12.07;7.87;;;;;;;2.49;100.00;97176.19;5033476;28;20029;-75
2021/12/13 01:00:47;;;;;;;13.27;7.43;;;;;;;2.52;100.00;97182.97;5026838;28;20033;-75
2021/12/13 01:03:33;;;;;;;14.53;7.43;;;;;;;2.46;100.00;97191.91;5035937;28;20033;-75
2021/12/13 01:06:37;;;;;;;12.87;7.80;;;;;;;2.47;100.00;97188.41;5042744;28;20494;-74
2021/12/13 01:09:40;;;;;;;10.93;6.47;;;;;;;2.43;100.00;97186.91;5036930;28;20044;-75
2021/12/13 01:12:10;;;;;;;12.33;7.00;;;;;;;2.43;100.00;97189.50;5021230;28;20037;-75
2021/12/13 01:14:58;;;;;;;10.53;6.77;;;;;;;2.48;100.00;97186.63;5048932;28;20036;-75
2021/12/13 01:20:56;;;;;;;12.80;7.23;;;;;;;2.45;100.00;97190.25;5029289;28;20029;-75
2021/12/13 01:23:38;;;;;;;13.77;7.80;;;;;;;2.48;100.00;97195.28;5021596;28;20112;-75
2021/12/13 01:26:26;;;;;;;8.25;5.10;;;;;;;2.47;100.00;97196.19;5035259;28;20538;-74
2021/12/13 01:28:59;;;;;;;10.63;6.93;;;;;;;2.49;100.00;97186.56;5028866;28;20042;-75
2021/12/13 01:31:35;;;;;;;13.03;7.43;;;;;;;2.45;100.00;97190.25;5026977;28;20025;-75
2021/12/13 01:34:02;;;;;;;12.37;7.67;;;;;;;2.47;100.00;97188.41;5027426;28;20044;-75
2021/12/13 01:36:40;;;;;;;12.50;7.97;;;;;;;2.46;100.00;97193.69;5039018;28;20044;-75
2021/12/13 01:39:12;;;;;;;11.47;7.77;;;;;;;2.48;100.00;97192.69;5028789;28;20705;-75
2021/12/13 01:41:47;;;;;;;13.13;7.47;;;;;;;2.50;100.00;97193.41;5015550;28;20414;-75
2021/12/13 01:44:35;;;;;;;15.87;8.73;;;;;;;2.49;100.00;97196.13;5015305;28;20041;-75
2021/12/13 01:47:06;;;;;;;12.37;7.27;;;;;;;2.48;100.00;97190.09;5035538;28;20033;-74
2021/12/13 01:49:36;;;;;;;11.70;8.73;;;;;;;2.48;100.00;97184.03;5028339;28;20034;-75
2021/12/13 01:52:12;;;;;;;11.23;7.93;;;;;;;2.49;100.00;97191.75;5009406;28;20034;-74
2021/12/13 01:54:39;;;;;;;13.20;8.37;;;;;;;2.50;100.00;97184.78;5021722;28;20035;-75
2021/12/13 01:59:54;;;;;;;14.10;9.20;;;;;;;2.49;100.00;97194.34;5030363;28;20120;-76
2021/12/13 02:02:35;;;;;;;13.43;9.03;;;;;;;2.52;100.00;97189.00;5024817;28;20072;-75
2021/12/13 02:05:09;;;;;;;16.30;8.13;;;;;;;2.51;100.00;97196.84;5036095;28;20037;-75
2021/12/13 02:07:44;;;;;;;13.93;9.27;;;;;;;2.52;100.00;97196.78;5018871;28;20054;-75
2021/12/13 02:10:42;;;;;;;15.97;9.73;;;;;;;2.53;100.00;97193.25;5026661;28;20029;-75
2021/12/13 02:13:17;;;;;;;15.90;9.73;;;;;;;2.54;100.00;97199.28;5012299;28;20048;-75
2021/12/13 02:18:34;;;;;;;17.87;9.70;;;;;;;2.53;100.00;97190.66;5027916;28;20428;-75
2021/12/13 02:21:07;;;;;;;15.87;9.20;;;;;;;2.56;100.00;97192.25;5025884;28;20083;-75
2021/12/13 02:23:43;;;;;;;15.15;9.07;;;;;;;2.62;100.00;97185.88;5017256;28;20123;-75
2021/12/13 02:26:09;;;;;;;14.67;8.90;;;;;;;2.59;100.00;97187.72;5013798;28;20148;-75
2021/12/13 02:28:38;;;;;;;14.97;9.57;;;;;;;2.59;100.00;97192.91;4996239;28;20030;-75
2021/12/13 02:31:15;;;;;;;15.93;9.20;;;;;;;2.62;100.00;97196.28;5026091;28;20033;-75
2021/12/13 02:33:47;;;;;;;14.50;9.23;;;;;;;2.59;100.00;97195.50;5040883;28;20028;-75
2021/12/13 02:36:27;;;;;;;13.93;8.43;;;;;;;2.60;100.00;97198.94;5029433;28;20035;-75
2021/12/13 02:38:55;;;;;;;14.33;8.63;;;;;;;2.61;100.00;97200.59;5031616;28;20045;-74
2021/12/13 02:41:26;;;;;;;12.23;7.33;;;;;;;2.60;100.00;97198.94;5028500;28;20052;-75
2021/12/13 02:43:58;;;;;;;13.57;7.30;;;;;;;2.64;100.00;97197.00;5034729;28;20083;-75
2021/12/13 02:46:25;;;;;;;13.27;8.03;;;;;;;2.63;100.00;97203.97;5018799;28;20068;-75
2021/12/13 02:48:57;;;;;;;14.53;8.13;;;;;;;2.63;100.00;97201.34;5025061;28;20028;-75
2021/12/13 02:51:44;;;;;;;11.27;7.30;;;;;;;2.65;100.00;97204.72;5032858;28;20044;-75
2021/12/13 02:54:19;;;;;;;12.17;8.00;;;;;;;2.64;100.00;97199.59;5019872;28;20059;-74
2021/12/13 02:57:07;;;;;;;12.50;8.17;;;;;;;2.60;100.00;97207.56;5032386;28;20061;-74
2021/12/13 02:59:35;;;;;;;13.70;7.70;;;;;;;2.63;100.00;97209.16;5018157;28;20041;-75
2021/12/13 03:02:16;;;;;;;12.80;7.73;;;;;;;2.65;100.00;97199.53;5026994;28;20112;-75
2021/12/13 03:04:42;;;;;;;13.77;8.40;;;;;;;2.63;100.00;97197.94;5032582;28;20041;-75
2021/12/13 03:07:33;;;;;;;12.27;7.33;;;;;;;2.65;100.00;97196.94;5013771;28;20399;-75
2021/12/13 03:10:02;;;;;;;13.23;7.40;;;;;;;2.63;100.00;97193.56;5016302;28;20041;-75
2021/12/13 03:12:28;;;;;;;11.83;7.73;;;;;;;2.63;100.00;97193.56;5025351;28;20033;-75
2021/12/13 03:15:00;;;;;;;11.87;7.03;;;;;;;2.67;100.00;97194.22;5043753;28;20029;-75
2021/12/13 03:18:07;;;;;;;13.83;7.70;;;;;;;2.66;100.00;97192.56;5027475;28;20060;-75
2021/12/13 03:20:52;;;;;;;12.83;8.03;;;;;;;2.65;100.00;97199.53;5029856;28;20047;-75
2021/12/13 03:23:41;;;;;;;13.40;8.10;;;;;;;2.68;100.00;97206.28;5029372;28;20063;-76
2021/12/13 03:26:38;;;;;;;12.60;7.77;;;;;;;2.69;100.00;97210.56;5010706;28;20042;-75
2021/12/13 03:29:19;;;;;;;13.93;7.90;;;;;;;2.68;100.00;97201.09;5011581;28;20069;-75
2021/12/13 03:31:51;;;;;;;15.10;7.63;;;;;;;2.68;100.00;97198.50;5030272;28;20029;-75
2021/12/13 03:34:26;;;;;;;14.63;7.53;;;;;;;2.69;100.00;97203.63;5046278;28;20032;-75
2021/12/13 03:36:57;;;;;;;13.47;8.20;;;;;;;2.70;100.00;97202.69;5036306;28;20045;-75
2021/12/13 03:39:30;;;;;;;15.10;8.57;;;;;;;2.72;100.00;97194.81;5027661;28;20040;-75
2021/12/13 03:41:58;;;;;;;16.30;7.57;;;;;;;2.72;100.00;97202.63;5023166;28;20513;-75
2021/12/13 03:44:29;;;;;;;15.57;8.63;;;;;;;2.74;100.00;97203.34;5013214;28;20140;-75
2021/12/13 03:47:07;;;;;;;18.10;8.50;;;;;;;2.74;100.00;97198.16;5029525;28;20037;-75
2021/12/13 03:49:39;;;;;;;15.40;9.07;;;;;;;2.74;100.00;97190.34;5026685;28;20038;-75
2021/12/13 03:52:06;;;;;;;17.40;9.23;;;;;;;2.78;100.00;97199.63;5020010;28;20037;-74
2021/12/13 03:54:37;;;;;;;27.37;10.33;;;;;;;2.75;100.00;97197.22;5039619;28;20025;-75
2021/12/13 03:57:03;;;;;;;22.63;10.83;;;;;;;2.76;100.00;97202.34;5022756;28;20380;-75
2021/12/13 03:59:34;;;;;;;19.63;10.30;;;;;;;2.80;100.00;97203.00;5009885;28;20026;-74
2021/12/13 04:02:04;;;;;;;18.23;9.73;;;;;;;2.76;100.00;97210.13;5012916;28;20102;-75
2021/12/13 04:04:35;;;;;;;19.63;9.43;;;;;;;2.75;100.00;97192.88;5029532;28;20037;-75
2021/12/13 04:07:12;;;;;;;21.13;10.93;;;;;;;2.76;100.00;97199.75;5023742;28;20111;-75
2021/12/13 04:09:41;;;;;;;20.60;10.27;;;;;;;2.76;100.00;97204.09;5034000;28;20041;-75
2021/12/13 04:12:08;;;;;;;20.53;10.00;;;;;;;2.78;100.00;97207.44;5027573;28;20655;-76
2021/12/13 04:14:43;;;;;;;20.30;10.93;;;;;;;2.78;100.00;97210.03;5012812;28;20212;-75
2021/12/13 04:17:23;;;;;;;17.77;10.40;;;;;;;2.81;100.00;97212.47;5008279;28;20033;-75
2021/12/13 04:19:56;;;;;;;17.77;10.03;;;;;;;2.81;100.00;97212.47;5035143;28;20083;-75
2021/12/13 04:22:36;;;;;;;18.52;10.00;;;;;;;2.79;100.00;97222.13;5032354;28;20418;-75
2021/12/13 04:25:15;;;;;;;18.33;10.03;;;;;;;2.81;100.00;97215.06;5048948;28;20041;-75
2021/12/13 04:27:57;;;;;;;18.50;9.87;;;;;;;2.78;100.00;97223.88;5032171;28;20500;-75
2021/12/13 04:31:05;;;;;;;16.67;9.47;;;;;;;2.80;100.00;97226.38;5048829;28;20044;-75
2021/12/13 04:33:40;;;;;;;14.87;8.63;;;;;;;2.79;100.00;97225.53;5032703;28;20037;-75
2021/12/13 04:36:12;;;;;;;17.87;8.80;;;;;;;2.80;100.00;97223.78;5032114;28;20056;-75
2021/12/13 04:38:58;;;;;;;17.43;9.90;;;;;;;2.79;100.00;97230.75;5048868;28;20482;-75
2021/12/13 04:41:23;;;;;;;17.17;9.87;;;;;;;2.78;100.00;97229.06;5031450;28;20124;-75
2021/12/13 04:43:53;;;;;;;15.67;8.97;;;;;;;2.79;100.00;97229.91;5036356;28;20535;-75
2021/12/13 04:46:21;;;;;;;17.50;10.30;;;;;;;2.82;100.00;97229.75;5038193;28;20078;-75
2021/12/13 04:48:53;;;;;;;14.87;8.93;;;;;;;2.82;100.00;97237.53;5034810;28;20033;-76
2021/12/13 04:51:24;;;;;;;13.85;7.75;;;;;;;2.80;100.00;97239.38;5031875;28;20040;-76
2021/12/13 04:53:50;;;;;;;14.13;8.40;;;;;;;2.81;100.00;97247.06;5023992;28;20052;-76
2021/12/13 04:56:23;;;;;;;14.90;8.57;;;;;;;2.81;100.00;97241.03;5044829;28;20530;-75
2021/12/13 04:58:52;;;;;;;13.52;6.65;;;;;;;2.82;100.00;97253.94;5022728;28;20052;-75
2021/12/13 05:01:19;;;;;;;15.13;8.17;;;;;;;2.82;100.00;97245.31;5028407;28;20112;-74
2021/12/13 05:03:51;;;;;;;13.20;7.40;;;;;;;2.85;100.00;97242.56;5028581;28;20036;-76
2021/12/13 05:06:23;;;;;;;14.47;8.27;;;;;;;2.87;100.00;97240.69;5019009;28;20064;-74
2021/12/13 05:08:56;;;;;;;14.30;8.67;;;;;;;2.85;100.00;97245.16;5043916;28;20548;-75
2021/12/13 05:11:21;;;;;;;12.90;8.07;;;;;;;2.81;100.00;97243.63;5034805;28;20033;-75
2021/12/13 05:13:52;;;;;;;15.50;8.53;;;;;;;2.83;100.00;97244.38;5024729;28;20025;-75
2021/12/13 05:16:28;;;;;;;16.80;8.67;;;;;;;2.82;100.00;97237.53;5039261;28;20033;-75
2021/12/13 05:18:57;;;;;;;13.40;8.63;;;;;;;2.82;100.00;97237.53;5036716;28;20029;-75
2021/12/13 05:21:28;;;;;;;14.10;8.60;;;;;;;2.86;100.00;97246.00;5024411;28;20075;-74
2021/12/13 05:24:00;;;;;;;12.77;7.40;;;;;;;2.87;100.00;97248.47;5031172;28;20029;-75
2021/12/13 05:26:34;;;;;;;9.73;5.80;;;;;;;2.88;100.00;97244.13;5024100;28;20102;-74
2021/12/13 05:29:01;;;;;;;;;;;;;;;2.86;100.00;97252.00;5037306;28;20511;-76
2021/12/13 05:31:28;;;;;;;13.00;7.47;;;;;;;2.92;100.00;97253.41;5028126;28;19913;-76
2021/12/13 05:34:05;;;;;;;13.10;8.07;;;;;;;2.88;100.00;97251.91;5012408;28;20053;-76
2021/12/13 05:36:34;;;;;;;14.43;8.23;;;;;;;2.88;100.00;97254.50;5034079;28;20512;-75
2021/12/13 05:39:14;;;;;;;11.13;6.60;;;;;;;2.89;100.00;97257.03;5032933;28;20033;-75
2021/12/13 05:41:52;;;;;;;13.17;7.43;;;;;;;2.90;100.00;97260.47;5011406;28;20569;-75
2021/12/13 05:44:26;;;;;;;12.60;8.03;;;;;;;2.90;100.00;97266.50;5027919;28;20042;-75
2021/12/13 05:46:53;;;;;;;13.20;7.47;;;;;;;2.94;100.00;97267.16;5024902;28;20041;-75
2021/12/13 05:49:22;;;;;;;11.73;7.07;;;;;;;2.93;100.00;97274.13;5026386;28;20064;-75
2021/12/13 05:51:52;;;;;;;12.33;7.00;;;;;;;2.91;100.00;97280.31;5047163;28;20041;-75
2021/12/13 05:54:31;;;;;;;11.77;6.70;;;;;;;2.93;100.00;97283.69;5039803;28;20112;-76
2021/12/13 05:57:07;;;;;;;10.80;6.53;;;;;;;2.96;100.00;97281.75;5015202;28;20037;-75
2021/12/13 05:59:37;;;;;;;11.27;6.57;;;;;;;2.96;100.00;97286.13;5028304;28;20025;-75
2021/12/13 06:02:17;;;;;;;12.63;7.13;;;;;;;2.99;100.00;97285.94;5024281;28;20031;-76
2021/12/13 06:05:04;;;;;;;11.53;6.83;;;;;;;2.98;100.00;97289.44;5018920;28;20121;-75
2021/12/13 06:07:36;;;;;;;11.07;6.93;;;;;;;2.98;100.00;97292.88;5001042;28;20072;-76
2021/12/13 06:10:02;;;;;;;10.53;6.50;;;;;;;2.97;100.00;97291.22;5008324;28;20105;-76
2021/12/13 06:12:31;;;;;;;12.87;7.80;;;;;;;3.00;100.00;97298.84;5023586;28;20085;-75
2021/12/13 06:15:29;;;;;;;19.57;8.77;;;;;;;4.05;100.00;97298.78;5019023;28;20072;-81
2021/12/13 06:18:18;;;;;;;21.50;12.53;;;;;;;3.81;100.00;97300.25;5002346;28;20514;-76
2021/12/13 06:21:05;;;;;;;14.73;8.73;;;;;;;3.58;100.00;97301.63;5034272;28;20028;-76
2021/12/13 06:23:33;;;;;;;17.93;11.67;;;;;;;3.39;100.00;97307.06;5013691;28;20685;-76
2021/12/13 06:26:08;;;;;;;11.13;7.33;;;;;;;3.29;100.00;97306.75;5027360;28;20037;-76
2021/12/13 06:28:44;;;;;;;11.23;6.97;;;;;;;3.15;100.00;97294.50;5016139;28;20042;-76
2021/12/13 06:31:14;;;;;;;12.03;7.40;;;;;;;3.17;100.00;97302.25;5023150;28;20104;-76
2021/12/13 06:33:59;;;;;;;15.73;8.60;;;;;;;3.11;100.00;97302.59;5029888;28;20113;-76
2021/12/13 06:36:32;;;;;;;13.20;7.53;;;;;;;3.07;100.00;97307.94;5010742;28;20036;-76
2021/12/13 06:39:07;;;;;;;10.85;6.88;;;;;;;3.11;100.00;97305.19;5042579;28;20033;-76
2021/12/13 06:41:38;;;;;;;13.30;8.13;;;;;;;3.08;100.00;97303.59;5032314;28;20064;-76
2021/12/13 06:44:21;;;;;;;15.73;7.90;;;;;;;3.17;100.00;97307.44;5026764;28;20074;-75
2021/12/13 06:47:01;;;;;;;12.77;7.72;;;;;;;3.19;100.00;97305.59;5007282;28;20029;-75
2021/12/13 06:49:38;;;;;;;12.57;7.57;;;;;;;3.12;100.00;97304.25;5042112;28;20037;-75
2021/12/13 06:52:08;;;;;;;13.53;7.73;;;;;;;3.13;100.00;97305.94;5035711;28;20710;-76
2021/12/13 06:54:42;;;;;;;12.80;7.80;;;;;;;3.14;100.00;97302.41;5035156;28;20029;-76
2021/12/13 06:57:14;;;;;;;;;;;;;;;3.14;100.00;97297.22;5019397;28;20083;-75
2021/12/13 06:59:53;;;;;;;11.97;6.57;;;;;;;3.15;100.00;97293.69;5046126;28;20362;-75
2021/12/13 07:02:25;;;;;;;11.43;7.30;;;;;;;3.19;100.00;97301.25;5047221;28;20575;-74
2021/12/13 07:05:02;;;;;;;12.10;6.97;;;;;;;3.19;100.00;97300.41;5047458;28;20447;-74
2021/12/13 07:07:48;;;;;;;11.60;6.73;;;;;;;3.18;100.00;97302.16;5047303;28;20040;-74
2021/12/13 07:10:22;;;;;;;10.77;6.93;;;;;;;3.21;100.00;97298.53;5024324;28;20069;-75
2021/12/13 07:12:52;;;;;;;;;;;;;;;3.19;100.00;97310.81;5016769;28;20026;-75
2021/12/13 07:15:30;;;;;;;11.17;6.90;;;;;;;3.20;100.00;97304.66;5024772;28;19919;-75
2021/12/13 07:18:02;;;;;;;11.67;7.30;;;;;;;3.22;100.00;97305.41;5023405;28;20168;-75
2021/12/13 07:20:40;;;;;;;8.98;6.88;;;;;;;3.23;100.00;97314.91;5031028;28;20035;-75
2021/12/13 07:23:06;;;;;;;14.07;7.77;;;;;;;3.28;100.00;97316.28;5020613;28;20048;-75
2021/12/13 07:25:38;;;;;;;10.50;7.13;;;;;;;3.27;100.00;97304.22;5018077;28;20470;-75
2021/12/13 07:28:07;;;;;;;10.93;6.10;;;;;;;3.29;100.00;97307.59;5037429;28;20033;-75
2021/12/13 07:30:35;;;;;;;10.83;7.03;;;;;;;3.33;100.00;97316.03;5041326;28;20080;-75
2021/12/13 07:33:06;;;;;;;12.60;7.70;;;;;;;3.30;100.00;97317.06;5035320;28;20029;-75
2021/12/13 07:35:47;;;;;;;12.07;7.13;;;;;;;3.34;100.00;97322.91;5041647;28;20033;-75
2021/12/13 07:38:18;;;;;;;12.07;7.40;;;;;;;3.37;100.00;97316.69;5028986;28;20443;-75
2021/12/13 07:40:51;;;;;;;12.40;7.67;;;;;;;3.38;100.00;97319.19;5043288;28;20106;-75
2021/12/13 07:43:32;;;;;;;11.70;7.70;;;;;;;3.42;100.00;97323.31;5016603;28;20449;-75
2021/12/13 07:46:21;;;;;;;11.97;7.50;;;;;;;3.42;100.00;97320.72;5029392;28;20033;-75
2021/12/13 07:48:49;;;;;;;13.47;8.70;;;;;;;3.44;100.00;97324.06;5010801;28;20088;-75
2021/12/13 07:51:22;;;;;;;13.93;7.83;;;;;;;3.45;100.00;97328.31;5009486;28;20402;-75
2021/12/13 07:53:57;;;;;;;14.30;8.13;;;;;;;3.47;100.00;97333.44;5026116;28;20025;-75
2021/12/13 07:56:28;;;;;;;12.80;7.43;;;;;;;3.48;100.00;97330.75;5031461;28;20037;-75
2021/12/13 07:59:05;;;;;;;13.53;7.93;;;;;;;3.52;100.00;97329.66;5037571;28;20032;-75
2021/12/13 08:01:35;;;;;;;11.07;6.57;;;;;;;3.56;100.00;97332.09;5026926;28;20028;-75
2021/12/13 08:04:14;;;;;;;17.40;7.40;;;;;;;3.59;100.00;97339.69;5020503;28;20091;-75
2021/12/13 08:06:58;;;;;;;10.57;6.73;;;;;;;3.63;100.00;97342.03;5020518;28;20028;-75
2021/12/13 08:09:29;;;;;;;10.32;5.88;;;;;;;3.65;100.00;97347.16;5009199;28;20069;-75
2021/12/13 08:12:15;;;;;;;10.47;5.57;;;;;;;3.70;100.00;97342.53;5012540;28;20033;-76
2021/12/13 08:14:44;;;;;;;12.17;6.13;;;;;;;3.74;100.00;97350.06;5030614;28;20105;-75
2021/12/13 08:17:18;;;;;;;11.83;6.70;;;;;;;3.77;100.00;97349.03;5012082;28;20033;-75
2021/12/13 08:20:04;;;;;;;11.87;7.33;;;;;;;3.80;100.00;97355.84;5036796;28;20045;-76
2021/12/13 08:22:31;;;;;;;18.30;11.50;;;;;;;3.80;100.00;97348.88;5035889;28;20045;-75
2021/12/13 08:25:07;;;;;;;34.50;12.00;;;;;;;3.78;100.00;97346.34;5029087;28;20051;-75
2021/12/13 08:27:41;;;;;;;23.50;9.43;;;;;;;3.73;100.00;97348.38;5035946;28;20052;-78
2021/12/13 08:30:07;;;;;;;13.00;7.67;;;;;;;3.79;100.00;97349.81;5019683;28;20073;-75
2021/12/13 08:32:33;;;;;;;11.70;7.10;;;;;;;3.84;100.00;97347.75;5027765;28;20033;-76
2021/12/13 08:35:01;;;;;;;11.07;6.50;;;;;;;3.78;100.00;97341.13;5044938;28;20445;-75
2021/12/13 08:37:32;;;;;;;12.27;7.07;;;;;;;3.80;100.00;97337.63;5036449;28;20028;-75
2021/12/13 08:40:13;;;;;;;12.00;6.33;;;;;;;3.86;100.00;97342.47;5012804;28;20092;-76
2021/12/13 08:42:43;;;;;;;10.23;5.93;;;;;;;3.86;100.00;97348.50;5013447;28;20052;-75
2021/12/13 08:45:34;;;;;;;12.13;6.00;;;;;;;3.90;100.00;97344.78;5035085;28;20036;-75
2021/12/13 08:48:12;;;;;;;9.60;5.60;;;;;;;3.95;100.00;97347.94;5031526;28;20029;-75
2021/12/13 08:51:02;;;;;;;9.67;5.83;;;;;;;4.00;100.00;97347.69;5026075;28;20080;-75
2021/12/13 08:53:37;;;;;;;9.73;5.80;;;;;;;4.13;100.00;97345.19;5021189;28;20458;-75
2021/12/13 08:56:08;;;;;;;10.30;5.60;;;;;;;4.15;100.00;97349.34;5021380;28;20092;-75
2021/12/13 08:58:35;;;;;;;13.63;9.07;;;;;;;4.16;100.00;97355.44;5034239;28;20025;-76
2021/12/13 09:01:09;;;;;;;9.63;5.67;;;;;;;4.19;100.00;97345.66;5023254;28;20703;-75
2021/12/13 09:03:46;;;;;;;7.63;4.80;;;;;;;4.14;100.00;97344.25;5030887;28;20033;-75
2021/12/13 09:06:17;;;;;;;8.70;4.90;;;;;;;4.20;100.00;97349.09;5037133;28;20060;-76
2021/12/13 09:08:49;;;;;;;13.87;9.20;;;;;;;4.29;100.00;97351.13;5029364;28;20048;-75
2021/12/13 09:11:20;;;;;;;8.40;5.07;;;;;;;4.28;100.00;97353.84;5034643;28;20131;-75
2021/12/13 09:14:11;;;;;;;8.50;4.90;;;;;;;4.34;100.00;97356.06;5029825;28;20033;-75
2021/12/13 09:17:07;;;;;;;8.73;4.63;;;;;;;4.36;100.00;97362.00;5019697;28;20116;-75
2021/12/13 09:19:49;;;;;;;8.27;4.60;;;;;;;4.37;100.00;97359.31;5007104;28;20495;-75
2021/12/13 09:22:20;;;;;;;7.33;4.47;;;;;;;4.41;100.00;97355.59;5042612;28;20033;-76
2021/12/13 09:24:46;;;;;;;8.40;4.97;;;;;;;4.43;100.00;97358.97;5023799;28;20038;-75
2021/12/13 09:27:42;;;;;;;7.10;3.90;;;;;;;4.41;100.00;97354.75;5021530;28;20042;-75
2021/12/13 09:30:22;;;;;;;9.83;4.03;;;;;;;4.46;100.00;97358.78;5021682;28;20030;-75
2021/12/13 09:32:54;;;;;;;7.97;4.30;;;;;;;4.52;100.00;97365.34;5027495;28;20542;-75
2021/12/13 09:35:25;;;;;;;5.80;3.13;;;;;;;4.71;100.00;97372.88;5031424;28;20030;-75
2021/12/13 09:37:53;;;;;;;5.43;2.70;;;;;;;4.53;100.00;97368.78;5048999;28;20048;-75
2021/12/13 09:40:29;;;;;;;7.90;3.13;;;;;;;4.66;100.00;97370.56;5048216;28;20028;-76
2021/12/13 09:42:56;;;;;;;6.93;3.30;;;;;;;4.74;100.00;97377.91;5011132;28;20037;-75
2021/12/13 09:45:48;;;;;;;7.20;3.57;;;;;;;4.83;100.00;97373.88;5028916;28;20112;-76
2021/12/13 09:48:31;;;;;;;5.53;3.13;;;;;;;4.75;100.00;97376.13;5043055;28;20040;-75
2021/12/13 09:51:03;;;;;;;6.57;3.53;;;;;;;4.77;100.00;97367.31;5032228;28;20037;-75
2021/12/13 09:53:34;;;;;;;6.87;3.40;;;;;;;4.86;100.00;97364.13;5035007;28;20042;-75
2021/12/13 09:56:11;;;;;;;6.37;3.17;;;;;;;4.87;100.00;97367.56;5044510;28;20035;-75
2021/12/13 09:59:05;;;;;;;7.20;3.60;;;;;;;4.93;100.00;97360.19;5028447;28;20025;-78
2021/12/13 10:01:37;;;;;;;6.18;3.45;;;;;;;5.03;100.00;97359.59;5019748;28;20029;-76
2021/12/13 10:04:08;;;;;;;5.93;3.00;;;;;;;5.16;100.00;97350.91;5035980;28;20454;-76
2021/12/13 10:06:44;;;;;;;6.70;3.47;;;;;;;5.10;100.00;97350.47;5039374;28;20025;-76
2021/12/13 10:09:20;;;;;;;7.17;4.10;;;;;;;5.11;100.00;97349.53;5026206;28;20034;-75
2021/12/13 10:12:04;;;;;;;6.33;3.70;;;;;;;4.99;100.00;97352.91;5016545;28;20055;-75
2021/12/13 10:14:38;;;;;;;;;;;;;;;5.00;100.00;97349.34;4991416;28;20660;-75
2021/12/13 10:17:08;;;;;;;6.68;4.00;;;;;;;4.96;100.00;97351.31;5025074;28;19913;-75
2021/12/13 10:19:42;;;;;;;9.57;4.67;;;;;;;4.76;100.00;97344.75;5006253;28;20049;-75
2021/12/13 10:22:15;;;;;;;8.17;4.57;;;;;;;4.89;100.00;97343.06;5007479;28;20041;-75
2021/12/13 10:24:59;;;;;;;6.80;3.55;;;;;;;4.90;100.00;97334.31;5032474;28;20048;-76
2021/12/13 10:27:26;;;;;;;6.97;3.90;;;;;;;5.00;100.00;97346.75;5017578;28;20044;-75
2021/12/13 10:29:56;;;;;;;7.43;4.10;;;;;;;5.03;100.00;97338.75;5030562;28;20040;-75
2021/12/13 10:32:24;;;;;;;7.40;3.90;;;;;;;4.96;100.00;97338.28;5001834;28;20039;-75
2021/12/13 10:34:55;;;;;;;9.93;5.43;;;;;;;4.99;100.00;97342.47;5034174;28;20033;-75
2021/12/13 10:37:33;;;;;;;8.80;4.47;;;;;;;5.07;100.00;97342.84;5005855;28;20044;-76
2021/12/13 10:40:16;;;;;;;8.47;4.17;;;;;;;5.09;100.00;97344.41;5023228;28;20129;-76
2021/12/13 10:42:50;;;;;;;7.63;4.30;;;;;;;5.19;100.00;97336.81;5015817;28;20079;-75
2021/12/13 10:45:23;;;;;;;7.37;3.77;;;;;;;5.30;100.00;97333.53;5026502;28;20029;-76
2021/12/13 10:47:54;;;;;;;6.85;3.88;;;;;;;5.31;100.00;97325.63;5023706;28;20042;-76
2021/12/13 10:50:51;;;;;;;6.43;3.47;;;;;;;5.33;100.00;97321.13;5021155;28;20632;-76
2021/12/13 10:53:20;;;;;;;5.63;2.90;;;;;;;5.33;100.00;97328.97;5034078;28;20041;-75
2021/12/13 10:55:51;;;;;;;6.37;2.37;;;;;;;5.46;100.00;97320.31;5040142;28;20028;-75
2021/12/13 10:58:30;;;;;;;5.60;2.27;;;;;;;5.60;100.00;97313.28;5038523;23;20048;-75
2021/12/13 11:01:36;;;;;;;4.03;2.37;;;;;;;5.73;100.00;97320.25;5027692;28;20033;-76
2021/12/13 11:04:15;;;;;;;6.97;2.87;;;;;;;5.80;100.00;97319.78;5035495;28;20426;-74
2021/12/13 11:06:46;;;;;;;6.17;3.77;;;;;;;5.65;100.00;97319.00;5043637;28;20099;-75
2021/12/13 11:09:25;;;;;;;8.13;4.20;;;;;;;5.72;100.00;97322.03;5022195;28;20120;-76
2021/12/13 11:12:05;;;;;;;5.93;2.90;;;;;;;5.77;100.00;97316.50;5006811;28;20168;-75
2021/12/13 11:14:49;;;;;;;5.93;3.23;;;;;;;5.74;100.00;97312.34;5005923;28;20037;-75
2021/12/13 11:17:44;;;;;;;5.30;3.10;;;;;;;5.74;100.00;97312.34;5005304;28;20632;-76
2021/12/13 11:20:45;;;;;;;7.30;3.23;;;;;;;5.75;100.00;97313.19;4989193;28;20044;-75
2021/12/13 11:23:16;;;;;;;9.30;5.93;;;;;;;5.87;100.00;97312.38;5005796;28;20046;-76
2021/12/13 11:25:50;;;;;;;7.77;4.70;;;;;;;5.96;100.00;97314.34;5013284;28;20035;-76
2021/12/13 11:28:18;;;;;;;6.47;4.43;;;;;;;5.90;100.00;97307.78;5006897;28;20575;-75
2021/12/13 11:30:46;;;;;;;5.43;3.13;;;;;;;5.94;100.00;97307.59;4993082;28;20030;-76
2021/12/13 11:33:34;;;;;;;6.10;4.00;;;;;;;6.08;100.00;97310.09;4994788;28;20093;-76
2021/12/13 11:36:06;;;;;;;9.83;6.23;;;;;;;6.04;100.00;97306.03;5011725;28;20564;-76
2021/12/13 11:39:00;;;;;;;8.53;4.87;;;;;;;6.06;100.00;97306.75;5011432;28;20092;-76
2021/12/13 11:42:11;;;;;;;6.05;3.45;;;;;;;5.94;100.00;97307.59;5014683;28;20529;-76
2021/12/13 11:44:55;;;;;;;7.43;3.67;;;;;;;6.01;100.00;97301.00;5009752;28;20425;-76
2021/12/13 11:47:29;;;;;;;6.20;3.63;;;;;;;5.86;100.00;97308.06;5011571;28;20410;-76
2021/12/13 11:50:30;;;;;;;6.90;3.67;;;;;;;5.90;100.00;97297.31;4994355;28;20033;-76
2021/12/13 11:53:24;;;;;;;5.37;3.10;;;;;;;5.95;100.00;97302.25;5005436;28;20704;-76
2021/12/13 11:59:26;;;;;;;6.90;3.63;;;;;;;5.91;100.00;97287.72;5049143;28;20053;-75
2021/12/13 12:02:08;;;;;;;6.23;3.47;;;;;;;5.90;100.00;97286.03;5032824;28;20051;-76
2021/12/13 12:05:11;;;;;;;6.80;3.83;;;;;;;5.94;100.00;97282.31;5033956;28;20040;-76
2021/12/13 12:08:04;;;;;;;6.80;4.03;;;;;;;5.96;100.00;97280.41;5015617;28;20494;-76
2021/12/13 12:10:56;;;;;;;5.95;3.00;;;;;;;5.98;100.00;97280.31;5017480;28;20051;-76
2021/12/13 12:13:51;;;;;;;8.60;4.17;;;;;;;5.97;100.00;97278.63;5032507;28;20040;-75
2021/12/13 12:16:21;;;;;;;6.37;3.80;;;;;;;5.95;100.00;97277.94;4996200;28;20313;-76
2021/12/13 12:18:50;;;;;;;10.20;4.10;;;;;;;6.09;100.00;97278.63;5010245;28;20053;-75
2021/12/13 12:21:40;;;;;;;7.90;4.53;;;;;;;6.19;100.00;97281.44;5012321;28;20433;-76
2021/12/13 12:24:23;;;;;;;12.17;7.40;;;;;;;6.12;100.00;97278.44;4992950;28;20471;-76